createdAt,value
2024-01-11T00:03:39.771Z,154.70
2024-01-11T00:10:01.548Z,135.50
2024-01-11T00:15:23.747Z,138.80
2024-01-11T00:20:26.151Z,134.00
2024-01-11T00:26:29.430Z,141.60
2024-01-11T00:31:52.025Z,138.30
2024-01-11T00:36:54.434Z,126.90
2024-01-11T00:41:56.749Z,134.70
2024-01-11T00:46:59.284Z,120.30
2024-01-11T00:52:01.385Z,119.00
2024-01-11T00:57:03.456Z,126.40
2024-01-11T01:02:05.667Z,131.40
2024-01-11T01:07:12.965Z,124.60
2024-01-11T01:12:15.252Z,107.40
2024-01-11T01:17:17.667Z,110.40
2024-01-11T01:22:20.021Z,116.90
2024-01-11T01:28:04.741Z,114.50
2024-01-11T01:33:07.136Z,114.40
2024-01-11T01:38:09.539Z,109.20
2024-01-11T01:43:11.776Z,111.80
2024-01-11T01:48:14.308Z,104.90
2024-01-11T01:54:16.388Z,102.20
2024-01-11T02:00:33.664Z,115.20
2024-01-11T02:05:36.309Z,105.20
2024-01-11T02:10:38.589Z,105.70
2024-01-11T02:15:40.613Z,105.70
2024-01-11T02:20:42.796Z,99.40
2024-01-11T02:25:44.998Z,101.60
2024-01-11T02:30:47.389Z,97.70
2024-01-11T02:35:49.623Z,94.90
2024-01-11T02:40:52.723Z,95.90
2024-01-11T02:46:00.175Z,90.40
2024-01-11T02:56:05.100Z,86.40
2024-01-11T03:01:07.572Z,88.30
2024-01-11T03:06:09.826Z,91.40
2024-01-11T03:12:21.954Z,91.10
2024-01-11T03:18:43.908Z,93.10
2024-01-11T03:23:52.762Z,93.70
2024-01-11T03:28:55.464Z,93.30
2024-01-11T03:33:57.995Z,95.10
2024-01-11T03:39:00.089Z,101.80
2024-01-11T03:44:02.846Z,105.50
2024-01-11T03:49:05.690Z,93.90
2024-01-11T03:54:08.004Z,98.00
2024-01-11T03:59:12.384Z,84.70
2024-01-11T04:04:15.223Z,79.30
2024-01-11T04:09:18.858Z,89.80
2024-01-11T04:14:21.066Z,96.60
2024-01-11T04:19:24.209Z,95.00
2024-01-11T04:24:26.601Z,81.00
2024-01-11T04:29:28.999Z,87.70
2024-01-11T04:34:31.601Z,89.30
2024-01-11T04:39:34.300Z,87.30
2024-01-11T04:44:36.902Z,93.50
2024-01-11T04:49:40.936Z,104.00
2024-01-11T04:54:45.677Z,96.20
2024-01-11T04:59:47.994Z,84.00
2024-01-11T05:04:50.570Z,88.70
2024-01-11T05:09:52.634Z,83.50
2024-01-11T05:14:54.702Z,81.60
2024-01-11T05:19:57.002Z,82.60
2024-01-11T05:24:59.066Z,77.00
2024-01-11T05:30:01.682Z,77.30
2024-01-11T05:36:03.554Z,78.50
2024-01-11T05:42:25.301Z,71.00
2024-01-11T05:47:47.393Z,71.90
2024-01-11T05:52:50.170Z,70.50
2024-01-11T05:57:52.378Z,73.40
2024-01-11T06:02:54.741Z,76.50
2024-01-11T06:08:13.346Z,65.90
2024-01-11T06:13:15.500Z,63.00
2024-01-11T06:18:18.490Z,64.30
2024-01-11T06:23:21.308Z,66.80
2024-01-11T06:28:23.885Z,63.50
2024-01-11T06:33:26.374Z,61.60
2024-01-11T06:38:28.795Z,58.60
2024-01-11T06:43:31.459Z,62.70
2024-01-11T06:48:34.391Z,59.00
2024-01-11T06:53:38.116Z,62.60
2024-01-11T06:58:40.226Z,72.90
2024-01-11T07:03:42.534Z,73.50
2024-01-11T07:08:44.835Z,79.40
2024-01-11T07:13:47.779Z,76.70
2024-01-11T07:18:50.236Z,80.20
2024-01-11T07:24:06.357Z,80.20
2024-01-11T07:29:08.499Z,71.70
2024-01-11T07:34:10.585Z,76.60
2024-01-11T07:39:12.902Z,71.10
2024-01-11T07:44:15.017Z,79.30
2024-01-11T07:49:17.252Z,80.20
2024-01-11T07:54:19.691Z,78.00
2024-01-11T07:59:22.026Z,75.80
2024-01-11T08:04:24.180Z,74.50
2024-01-11T08:09:27.423Z,68.10
2024-01-11T08:14:29.578Z,73.30
2024-01-11T08:19:35.238Z,92.50
2024-01-11T08:24:37.351Z,107.00
2024-01-11T08:29:40.071Z,104.60
2024-01-11T08:34:42.647Z,76.30
2024-01-11T08:39:45.064Z,70.70
2024-01-11T08:44:48.784Z,58.30
2024-01-11T08:49:51.413Z,67.60
2024-01-11T08:54:53.837Z,70.10
2024-01-11T08:59:56.279Z,69.80
2024-01-11T09:04:58.377Z,72.90
2024-01-11T09:10:00.772Z,60.40
2024-01-11T09:15:03.219Z,56.10
2024-01-11T09:20:06.141Z,52.20
2024-01-11T09:25:09.879Z,53.50
2024-01-11T09:30:12.436Z,56.90
2024-01-11T09:35:16.578Z,58.40
2024-01-11T09:40:20.257Z,56.70
2024-01-11T09:45:22.450Z,55.10
2024-01-11T09:50:26.161Z,60.40
2024-01-11T09:55:28.385Z,59.80
2024-01-11T10:00:31.042Z,59.10
2024-01-11T10:05:35.887Z,59.00
2024-01-11T10:10:39.917Z,61.30
2024-01-11T10:15:44.316Z,59.80
2024-01-11T10:20:46.745Z,65.30
2024-01-11T10:25:48.884Z,57.30
2024-01-11T10:30:54.368Z,62.20
2024-01-11T10:35:56.707Z,60.30
2024-01-11T10:41:01.755Z,59.80
2024-01-11T10:46:07.944Z,63.70
2024-01-11T10:51:13.924Z,64.80
2024-01-11T10:56:19.828Z,64.50
2024-01-11T11:01:22.988Z,55.70
2024-01-11T11:06:26.017Z,49.90
2024-01-11T11:11:30.390Z,51.50
2024-01-11T11:16:32.670Z,48.70
2024-01-11T11:21:43.498Z,45.30
2024-01-11T11:26:48.976Z,48.10
2024-01-11T11:31:58.468Z,48.90
2024-01-11T11:37:01.234Z,40.80
2024-01-11T11:42:04.261Z,36.80
2024-01-11T11:47:24.099Z,33.10
2024-01-11T11:52:27.053Z,30.30
2024-01-11T11:57:30.065Z,28.90
2024-01-11T12:02:32.569Z,28.80
2024-01-11T12:07:34.950Z,25.10
2024-01-11T12:12:38.342Z,22.40
2024-01-11T12:17:44.050Z,25.50
2024-01-11T12:22:46.515Z,24.00
2024-01-11T12:27:48.841Z,22.50
2024-01-11T12:32:51.996Z,24.70
2024-01-11T12:38:00.711Z,26.60
2024-01-11T12:43:02.974Z,28.90
2024-01-11T12:48:08.530Z,30.20
2024-01-11T12:53:22.285Z,29.40
2024-01-11T12:58:27.751Z,31.70
2024-01-11T13:03:30.379Z,33.50
2024-01-11T13:08:33.238Z,34.40
2024-01-11T13:13:36.856Z,34.10
2024-01-11T13:18:39.020Z,34.00
2024-01-11T13:23:42.182Z,36.50
2024-01-11T13:28:44.339Z,35.20
2024-01-11T13:33:46.620Z,33.40
2024-01-11T13:38:48.869Z,35.00
2024-01-11T13:43:51.518Z,34.60
2024-01-11T13:48:54.472Z,33.50
2024-01-11T13:53:56.841Z,34.40
2024-01-11T13:58:58.930Z,30.70
2024-01-11T14:04:01.054Z,32.10
2024-01-11T14:09:06.021Z,34.20
2024-01-11T14:14:08.781Z,34.30
2024-01-11T14:19:11.151Z,31.60
2024-01-11T14:24:14.491Z,31.20
2024-01-11T14:29:17.101Z,28.00
2024-01-11T14:34:19.539Z,28.90
2024-01-11T14:39:24.337Z,27.10
2024-01-11T14:44:27.262Z,27.50
2024-01-11T14:49:31.020Z,26.10
2024-01-11T14:54:33.675Z,24.20
2024-01-11T14:59:35.958Z,24.90
2024-01-11T15:04:38.256Z,24.10
2024-01-11T15:09:42.036Z,22.40
2024-01-11T15:14:44.596Z,21.90
2024-01-11T15:19:47.916Z,22.80
2024-01-11T15:25:49.953Z,23.60
2024-01-11T15:32:11.985Z,26.10
2024-01-11T15:38:44.036Z,22.60
2024-01-11T15:44:06.249Z,26.30
2024-01-11T15:49:08.965Z,28.20
2024-01-11T15:54:11.335Z,27.40
2024-01-11T15:59:13.835Z,32.70
2024-01-11T16:04:16.150Z,30.30
2024-01-11T16:09:18.415Z,30.40
2024-01-11T16:14:20.802Z,32.50
2024-01-11T16:19:23.276Z,32.20
2024-01-11T16:24:26.037Z,29.30
2024-01-11T16:29:28.458Z,32.40
2024-01-11T16:34:30.849Z,34.10
2024-01-11T16:39:33.220Z,32.80
2024-01-11T16:44:35.564Z,34.30
2024-01-11T16:49:37.902Z,31.90
2024-01-11T16:54:40.455Z,31.70
2024-01-11T16:59:42.777Z,32.60
2024-01-11T17:04:45.419Z,30.80
2024-01-11T17:09:48.175Z,33.40
2024-01-11T17:14:51.522Z,31.90
2024-01-11T17:19:54.342Z,31.40
2024-01-11T17:24:59.031Z,30.90
2024-01-11T17:30:01.249Z,31.90
2024-01-11T17:35:04.174Z,33.20
2024-01-11T17:40:07.757Z,35.10
2024-01-11T17:45:11.400Z,32.90
2024-01-11T17:50:13.647Z,32.80
2024-01-11T17:55:15.862Z,36.70
2024-01-11T18:00:22.769Z,36.70
2024-01-11T18:05:26.630Z,37.40
2024-01-11T18:10:38.932Z,32.30
2024-01-11T18:15:43.595Z,35.40
2024-01-11T18:21:45.516Z,35.40
2024-01-11T18:27:32.940Z,33.50
2024-01-11T18:32:35.472Z,36.80
2024-01-11T18:37:38.076Z,34.00
2024-01-11T18:42:46.590Z,35.70
2024-01-11T18:47:48.804Z,35.80
2024-01-11T18:52:52.909Z,34.00
2024-01-11T18:57:56.278Z,35.60
2024-01-11T19:03:00.021Z,33.30
2024-01-11T19:09:02.056Z,34.60
2024-01-11T19:15:23.856Z,32.40
2024-01-11T19:20:46.406Z,32.00
2024-01-11T19:25:48.917Z,31.60
2024-01-11T19:30:54.767Z,29.10
2024-01-11T19:36:00.180Z,32.00
2024-01-11T19:41:02.448Z,29.50
2024-01-11T19:46:05.233Z,29.30
2024-01-11T19:51:11.309Z,28.80
2024-01-11T19:57:20.427Z,28.90
2024-01-11T20:02:42.988Z,31.20
2024-01-11T20:07:45.499Z,34.40
2024-01-11T20:12:49.470Z,31.20
2024-01-11T20:17:51.685Z,29.80
2024-01-11T20:22:55.448Z,26.90
2024-01-11T20:27:58.104Z,25.50
2024-01-11T20:33:01.109Z,26.80
2024-01-11T20:38:05.149Z,22.80
2024-01-11T20:43:10.079Z,23.80
2024-01-11T20:48:12.924Z,24.70
2024-01-11T20:53:16.187Z,23.20
2024-01-11T20:58:18.364Z,25.40
2024-01-11T21:03:20.846Z,26.20
2024-01-11T21:08:22.722Z,29.70
2024-01-11T21:13:25.569Z,29.60
2024-01-11T21:18:27.829Z,28.10
2024-01-11T21:23:30.875Z,28.10
2024-01-11T21:29:33.352Z,28.50
2024-01-11T21:34:55.711Z,29.80
2024-01-11T21:39:58.413Z,28.60
2024-01-11T21:45:00.765Z,27.10
2024-01-11T21:51:04.679Z,27.40
2024-01-11T21:57:26.656Z,30.30
2024-01-11T22:03:48.468Z,29.40
2024-01-11T22:09:10.757Z,34.00
2024-01-11T22:14:13.209Z,28.70
2024-01-11T22:19:15.514Z,29.40
2024-01-11T22:24:18.795Z,30.80
2024-01-11T22:29:21.052Z,30.20
2024-01-11T22:34:24.550Z,28.00
2024-01-11T22:40:08.317Z,27.70
2024-01-11T22:45:10.577Z,27.00
2024-01-11T22:50:12.766Z,27.50
2024-01-11T22:55:15.037Z,25.70
2024-01-11T23:00:39.218Z,25.80
2024-01-11T23:05:41.966Z,27.70
2024-01-11T23:11:44.705Z,25.20
2024-01-11T23:17:50.193Z,30.40
2024-01-11T23:23:12.391Z,28.10
2024-01-11T23:28:14.711Z,24.80
2024-01-11T23:33:17.287Z,25.90
2024-01-11T23:39:19.416Z,26.90
2024-01-11T23:45:41.163Z,28.40
2024-01-11T23:52:02.927Z,27.10
2024-01-11T23:58:12.617Z,27.10
